Airfield :
LOGIN :

Register | Disclaimer

   EN    FR    IT 

 










Legend :    VFR   Marginal VFR   IFR   Intensive IFR   Very Intensive IFR
Visi :
Ceiling :
>= 8 km
>= 3000ft
5 to 8 km
1000 to 3000 ft
1500m to 5 km
500 to 1000 ft
800 to 1500m
200 to 500 ft
< 800m
< 200 ft
Symbols :   Thunderstorms  Fog  Heavy snow  Heavy precipitations  Wind > 20 kt
SIGMETs :     Misc.  Thunderstorms  Icing  Turbulence  Mountain Waves  Volcanic Ashes






- Airport Elevation : 1585 ft
- IATA code : SIR


LSGS - Sion

CURRENT METAR :
  • 121250Z 24005KT 170V270 9999 FEW070 06/M04 Q1006

EXPIRED METARs :
  • 121220Z VRB01KT 9999 FEW070 06/M04 Q1006
  • 121150Z VRB03KT 9999 FEW070 05/M04 Q1007
  • 121120Z VRB02KT 9999 FEW070 05/M02 Q1007
  • 121050Z VRB02KT 9999 FEW070 04/M01 Q1008
  • 121020Z VRB02KT 9999 FEW070 03/M02 Q1008

TAF TAF LSGS
Valid from the 12 at 12:00 until the 12 at 21:00 UTC


121125Z 1212/1221 VRB03KT 9999 FEW080



MET'MAP, your aeronautical weather chart ! - Copyright ORBIFLY December 2007 - Disclaimer

ORBIFLY MET'MAP TEAM :

Programming & Development : Alexandra Zaïnal
Concept & original design : Baudouin d'Aumeries
Assistance for programming : Marc-Olivier Méhu
Technical & hardware support : Manuel Goepfert

Contact : metmap@orbifly.com




SOURCES & CREDITS :

   NOAA